EDT,Max TemperatureF,Mean TemperatureF,Min TemperatureF,Max Dew PointF,MeanDew PointF,Min DewpointF,Max Humidity, Mean Humidity, Min Humidity, Max Sea Level PressureIn, Mean Sea Level PressureIn, Min Sea Level PressureIn, Max VisibilityMiles, Mean VisibilityMiles, Min VisibilityMiles, Max Wind SpeedMPH, Mean Wind SpeedMPH, Max Gust SpeedMPH,PrecipitationIn, CloudCover, Events, WindDirDegrees
2013-5-1,64,48,33,43,33,19,100,61,20,30.46,30.44,30.38,10,10,9,20,3,,0.00,0,,189
2013-5-2,60,48,37,45,40,36,100,76,39,30.54,30.47,30.43,10,10,8,10,2,17,0.00,3,,91
2013-5-3,62,50,39,45,40,37,93,72,48,30.56,30.47,30.38,10,10,10,12,6,16,0.00,1,,45
2013-5-4,55,45,35,41,37,34,100,73,47,30.42,30.37,30.33,10,10,8,13,5,18,0.00,0,,80
2013-5-5,57,44,30,43,38,30,100,76,48,30.34,30.30,30.26,10,9,4,22,5,25,0.00,0,,201
2013-5-6,57,46,35,46,42,34,100,82,54,30.29,30.25,30.19,10,8,0,17,7,22,0.00,2,,201
2013-5-7,64,53,42,54,47,43,100,87,63,30.19,30.16,30.11,10,5,0,17,8,21,0.00,5,,201
2013-5-8,69,58,46,61,53,46,100,90,68,30.28,30.22,30.18,10,6,0,15,5,17,0.00,5,,168
2013-5-9,55,52,50,55,52,48,100,98,94,30.17,30.04,29.94,10,6,0,8,3,,0.01,8,,92
2013-5-10,64,56,48,61,53,48,100,95,77,29.99,29.94,29.90,10,6,0,14,3,,0.00,5,,173
2013-5-11,57,52,46,55,51,46,100,98,93,29.97,29.84,29.73,10,5,0,20,7,24,0.00,8,,156
2013-5-12,55,52,48,55,53,46,100,98,93,29.72,29.63,29.54,10,2,0,15,8,23,0.00,8,,192
2013-5-13,53,47,41,46,39,34,100,73,51,30.00,29.86,29.71,10,10,7,24,8,33,0.00,2,,213
2013-5-14,55,48,41,41,34,28,93,59,38,30.00,29.96,29.91,10,10,5,13,3,17,0.00,7,,334
2013-5-15,59,46,33,48,36,28,100,65,33,29.99,29.91,29.72,10,9,3,24,7,29,0.00,2,,214
2013-5-16,64,56,48,55,49,43,100,79,49,29.76,29.64,29.57,10,9,2,17,9,23,0.00,5,,205
2013-5-17,59,50,42,45,40,36,87,66,44,30.19,29.96,29.76,10,10,10,17,5,25,0.00,5,,335
2013-5-18,57,47,37,45,40,36,100,76,51,30.37,30.30,30.20,10,10,10,16,4,,0.00,3,,144
2013-5-19,55,45,35,48,42,36,100,84,54,30.40,30.35,30.28,10,10,2,12,3,,0.00,2,,116
2013-5-20,57,52,48,55,51,48,100,98,94,30.27,30.06,29.95,10,8,2,21,6,29,0.00,8,,133
2013-5-21,50,49,48,48,48,46,100,98,93,30.09,30.05,30.01,10,9,1,8,4,,0.00,8,,88
2013-5-22,51,48,46,52,49,46,100,98,93,30.07,29.99,29.96,10,5,0,13,7,20,0.00,8,,96
2013-5-23,60,53,46,57,52,46,100,99,88,29.97,29.90,29.85,10,4,0,15,6,20,0.00,8,,175
2013-5-24,62,56,50,63,56,48,100,99,88,29.86,29.77,29.68,10,5,0,30,13,39,0.00,8,,204
2013-5-25,51,50,48,52,50,46,100,98,93,29.82,29.76,29.71,10,6,1,17,11,24,0.00,8,,46
2013-5-26,50,46,42,48,46,43,100,96,87,29.91,29.74,29.64,10,8,2,12,7,,0.00,7,,135
2013-5-27,62,52,41,45,40,34,100,69,34,30.16,30.01,29.90,10,10,10,10,5,20,0.00,4,,293
2013-5-28,68,52,37,46,41,37,100,66,35,30.24,30.21,30.16,10,10,9,16,4,22,0.00,0,,195
2013-5-29,53,48,42,54,49,43,100,97,87,30.25,30.17,30.01,10,4,0,15,4,20,0.00,6,,123
2013-5-30,80,66,51,64,58,50,100,86,54,30.02,29.99,29.96,10,7,0,13,2,,0.00,5,,211
2013-5-31,82,68,53,64,61,52,100,77,54,30.03,29.96,29.87,10,9,1,15,4,17,0.00,0,,201